Orlando, FL (32807)

3:26 AM EDT en Septiembre 16, 2014 (GMT -0400)
Azalea Park | Change Station
CLOSE
Current Station
Estación meteorológica personal
Location: Orlando, Fl
Altura: 104 ft
Estaciones meteorológicas cercanas

Alt 104 ft 28.54 °N, 81.30 °W | Updated 22 seconds ago

Clear
Despejado
75.4 ° F
Sensación térmica 74 ° F
N
0.0
Viento Variable Viento desde ESE
Gusts 0.0 mph

Hoy
Alta -- | Baja -- ° F
--% Posibilidad de precipitaciones
Ayer
Alta -- | Baja -- ° F
Precip. -- pul
7:10 AM 7:28 PM
Gibosa menguante, 48% visible
Presión 30.11 pul
Visibilidad 10.0 Millas
Nubes Despejado
Índice de calor 74 ° F
Punto de rocío 74 ° F
Humedad 94%
Precipitaciones 0.00 pul
Espesor de la nieve No disponible.
UV 0 de una escala de 12
Polen 7.20 de una escala de 12
Calidad del aire No disponible.
Flu Activity No disponible.
METAR KORL 160653Z AUTO 23003KT 10SM CLR 26/23 A3010 RMK AO2 SLP196 T02610228

More Conditions Fewer Conditions

Presión 30.11 pul
Visibilidad 10.0 Millas
Nubes Despejado
Índice de calor 74 ° F
Punto de rocío 74 ° F
Humedad 94%
Precipitaciones 0.00 pul
Espesor de la nieve No disponible.
UV 0 de una escala de 12
Polen 7.20 de una escala de 12
Calidad del aire No disponible.
Flu Activity No disponible.
METAR KORL 160653Z AUTO 23003KT 10SM CLR 26/23 A3010 RMK AO2 SLP196 T02610228

More Conditions Fewer Conditions

10-Day Weather Forecast

Almanac

Astronomía

Sep. 16, 2014 Salida Puesta
Hora real 7:10 AM EDT 7:28 PM EDT
Crepúsculo civil 6:47 AM EDT 7:52 PM EDT
Crepúsculo náutico 6:19 AM EDT 8:20 PM EDT
Crepúsculo astronómico 5:51 AM EDT 8:47 PM EDT
Luna 12:40 AM EDT 2:30 PM EDT
Horas de luz 13h 05m
Horas de luz
12h 18m
Tomorrow will be 1m 42s shorter.
Gibosa menguante, 48% of the Moon is Illuminated
Hoy
Gibosa menguante
Sep 24
Nueva
Oct 1
Cuarto creciente
Oct 8
Luna llena
Oct 15
Cuarto menguante

Extremos de hoy

Máximos del estado Bajos del estado

Community

WunderPhotos

Upload Photos

1,753,699 ¡fotos cargadas!

Nearby

Calidad del aire

  Calidad del aire Índice AQ Contaminante
Ayer Moderada
PM2.5
Ayer Buena
OZONE
Martes Buena
PM2.5

Grosos de nieve

Estación Profundido Altura
No tenemos constancia de nieve nueva.

Actividad de terremotos

Ciudad Distance Mag. Tiempo y dato
No hay informes recientes de la actividad sísmica.
Magnitud mínima muestra es 2,5.

Temperaturas de aguas costeras

Lugar Temperatura
Sin partes meteorológicos de las estaciones

Estaciones meteorológicas cercanas